sensor_id;sensor_type;location;lat;lon;timestamp;pressure;altitude;pressure_sealevel;temperature
8533;BMP280;4304;53.876;10.662;2022-10-16T00:00:16;116254.75;;;-139.81
8533;BMP280;4304;53.876;10.662;2022-10-16T00:02:41;116254.75;;;-139.81
8533;BMP280;4304;53.876;10.662;2022-10-16T00:05:07;116254.75;;;-139.81
8533;BMP280;4304;53.876;10.662;2022-10-16T00:07:32;116254.75;;;-139.81
8533;BMP280;4304;53.876;10.662;2022-10-16T00:09:57;116254.75;;;-139.81
8533;BMP280;4304;53.876;10.662;2022-10-16T00:12:24;116254.75;;;-139.81
8533;BMP280;4304;53.876;10.662;2022-10-16T00:14:49;116254.75;;;-139.81
8533;BMP280;4304;53.876;10.662;2022-10-16T00:17:14;116254.75;;;-139.81
8533;BMP280;4304;53.876;10.662;2022-10-16T00:19:39;116254.75;;;-139.81
8533;BMP280;4304;53.876;10.662;2022-10-16T00:22:04;116254.75;;;-139.81
8533;BMP280;4304;53.876;10.662;2022-10-16T00:24:31;116254.75;;;-139.81
8533;BMP280;4304;53.876;10.662;2022-10-16T00:26:56;116254.75;;;-139.81
8533;BMP280;4304;53.876;10.662;2022-10-16T00:29:21;116254.75;;;-139.81
8533;BMP280;4304;53.876;10.662;2022-10-16T00:31:46;116254.75;;;-139.81
8533;BMP280;4304;53.876;10.662;2022-10-16T00:34:11;116254.75;;;-139.81
8533;BMP280;4304;53.876;10.662;2022-10-16T00:36:37;116254.75;;;-139.81
8533;BMP280;4304;53.876;10.662;2022-10-16T00:39:02;116254.75;;;-139.81
8533;BMP280;4304;53.876;10.662;2022-10-16T00:41:28;116254.75;;;-139.81
8533;BMP280;4304;53.876;10.662;2022-10-16T00:43:56;116254.75;;;-139.81
8533;BMP280;4304;53.876;10.662;2022-10-16T00:46:29;116254.75;;;-139.81
8533;BMP280;4304;53.876;10.662;2022-10-16T00:49:01;116254.75;;;-139.81
8533;BMP280;4304;53.876;10.662;2022-10-16T00:51:30;116254.75;;;-139.81
8533;BMP280;4304;53.876;10.662;2022-10-16T00:53:57;116254.75;;;-139.81
8533;BMP280;4304;53.876;10.662;2022-10-16T00:56:23;116254.75;;;-139.81
8533;BMP280;4304;53.876;10.662;2022-10-16T00:58:48;116254.75;;;-139.81
8533;BMP280;4304;53.876;10.662;2022-10-16T01:01:13;116254.75;;;-139.81
8533;BMP280;4304;53.876;10.662;2022-10-16T01:03:38;116254.75;;;-139.81
8533;BMP280;4304;53.876;10.662;2022-10-16T01:08:53;116254.75;;;-139.81
8533;BMP280;4304;53.876;10.662;2022-10-16T01:11:32;116254.75;;;-139.81
8533;BMP280;4304;53.876;10.662;2022-10-16T01:14:06;116254.75;;;-139.81
8533;BMP280;4304;53.876;10.662;2022-10-16T01:16:40;116254.75;;;-139.81
8533;BMP280;4304;53.876;10.662;2022-10-16T01:19:14;116254.75;;;-139.81
8533;BMP280;4304;53.876;10.662;2022-10-16T01:21:46;116254.75;;;-139.81
8533;BMP280;4304;53.876;10.662;2022-10-16T01:24:31;116254.75;;;-139.81
8533;BMP280;4304;53.876;10.662;2022-10-16T01:32:40;116254.75;;;-139.81
8533;BMP280;4304;53.876;10.662;2022-10-16T01:35:15;115995.09;;;-139.81
8533;BMP280;4304;53.876;10.662;2022-10-16T01:37:51;116254.75;;;-139.81
8533;BMP280;4304;53.876;10.662;2022-10-16T01:40:20;115995.09;;;-139.81
8533;BMP280;4304;53.876;10.662;2022-10-16T01:45:31;115995.09;;;-139.81
8533;BMP280;4304;53.876;10.662;2022-10-16T01:47:58;115995.09;;;-139.81
8533;BMP280;4304;53.876;10.662;2022-10-16T01:50:26;115995.09;;;-139.81
8533;BMP280;4304;53.876;10.662;2022-10-16T01:52:53;115995.09;;;-139.81
8533;BMP280;4304;53.876;10.662;2022-10-16T01:55:25;115995.09;;;-139.81
8533;BMP280;4304;53.876;10.662;2022-10-16T01:57:54;115995.09;;;-139.81
8533;BMP280;4304;53.876;10.662;2022-10-16T02:00:20;115995.09;;;-139.81
8533;BMP280;4304;53.876;10.662;2022-10-16T02:02:48;116254.75;;;-139.81
8533;BMP280;4304;53.876;10.662;2022-10-16T02:05:20;115995.09;;;-139.81
8533;BMP280;4304;53.876;10.662;2022-10-16T02:07:47;115995.09;;;-139.81
8533;BMP280;4304;53.876;10.662;2022-10-16T02:10:13;115995.09;;;-139.81
8533;BMP280;4304;53.876;10.662;2022-10-16T02:12:41;115995.09;;;-139.81
8533;BMP280;4304;53.876;10.662;2022-10-16T02:15:08;115995.09;;;-139.81
8533;BMP280;4304;53.876;10.662;2022-10-16T02:17:33;115995.09;;;-139.81
8533;BMP280;4304;53.876;10.662;2022-10-16T02:19:59;115995.09;;;-139.81
8533;BMP280;4304;53.876;10.662;2022-10-16T02:25:16;115995.09;;;-139.81
8533;BMP280;4304;53.876;10.662;2022-10-16T02:28:08;115995.09;;;-139.81
8533;BMP280;4304;53.876;10.662;2022-10-16T02:30:39;115995.09;;;-139.81
8533;BMP280;4304;53.876;10.662;2022-10-16T02:33:09;115995.09;;;-139.81
8533;BMP280;4304;53.876;10.662;2022-10-16T02:35:36;115995.09;;;-139.81
8533;BMP280;4304;53.876;10.662;2022-10-16T02:38:03;115995.09;;;-139.81
8533;BMP280;4304;53.876;10.662;2022-10-16T02:40:28;115995.09;;;-139.81
8533;BMP280;4304;53.876;10.662;2022-10-16T02:42:54;115995.09;;;-139.81
8533;BMP280;4304;53.876;10.662;2022-10-16T02:45:20;115995.09;;;-139.81
8533;BMP280;4304;53.876;10.662;2022-10-16T02:47:46;115995.09;;;-139.81
8533;BMP280;4304;53.876;10.662;2022-10-16T02:50:12;115995.09;;;-139.81
8533;BMP280;4304;53.876;10.662;2022-10-16T02:52:37;115995.09;;;-139.81
8533;BMP280;4304;53.876;10.662;2022-10-16T02:55:03;115995.09;;;-139.81
8533;BMP280;4304;53.876;10.662;2022-10-16T02:57:28;115995.09;;;-139.81
8533;BMP280;4304;53.876;10.662;2022-10-16T02:59:53;115995.09;;;-139.81
8533;BMP280;4304;53.876;10.662;2022-10-16T03:02:19;115995.09;;;-139.81
8533;BMP280;4304;53.876;10.662;2022-10-16T03:04:44;115995.09;;;-139.81
8533;BMP280;4304;53.876;10.662;2022-10-16T03:07:09;115995.09;;;-139.81
8533;BMP280;4304;53.876;10.662;2022-10-16T03:09:34;115735.44;;;-139.81
8533;BMP280;4304;53.876;10.662;2022-10-16T03:11:59;115735.44;;;-139.81
8533;BMP280;4304;53.876;10.662;2022-10-16T03:14:25;115735.44;;;-139.81
8533;BMP280;4304;53.876;10.662;2022-10-16T03:16:50;115735.44;;;-139.81
8533;BMP280;4304;53.876;10.662;2022-10-16T03:19:18;115735.44;;;-139.81
8533;BMP280;4304;53.876;10.662;2022-10-16T03:21:43;115735.44;;;-139.81
8533;BMP280;4304;53.876;10.662;2022-10-16T03:24:09;115735.44;;;-139.81
8533;BMP280;4304;53.876;10.662;2022-10-16T03:26:34;115735.44;;;-139.81
8533;BMP280;4304;53.876;10.662;2022-10-16T03:28:59;115735.44;;;-139.81
8533;BMP280;4304;53.876;10.662;2022-10-16T03:31:24;115735.44;;;-139.81
8533;BMP280;4304;53.876;10.662;2022-10-16T03:33:50;115735.44;;;-139.81
8533;BMP280;4304;53.876;10.662;2022-10-16T03:36:15;115735.44;;;-139.81
8533;BMP280;4304;53.876;10.662;2022-10-16T03:38:40;115735.44;;;-139.81
8533;BMP280;4304;53.876;10.662;2022-10-16T03:41:06;115735.44;;;-139.81
8533;BMP280;4304;53.876;10.662;2022-10-16T03:43:31;115735.44;;;-139.81
8533;BMP280;4304;53.876;10.662;2022-10-16T03:45:56;115735.44;;;-139.81
8533;BMP280;4304;53.876;10.662;2022-10-16T03:48:21;115735.44;;;-139.81
8533;BMP280;4304;53.876;10.662;2022-10-16T03:50:46;115735.44;;;-139.81
8533;BMP280;4304;53.876;10.662;2022-10-16T03:53:15;115735.44;;;-139.81
8533;BMP280;4304;53.876;10.662;2022-10-16T03:55:44;115735.44;;;-139.81
8533;BMP280;4304;53.876;10.662;2022-10-16T03:58:10;115475.81;;;-139.81
8533;BMP280;4304;53.876;10.662;2022-10-16T04:00:35;115475.81;;;-139.81
8533;BMP280;4304;53.876;10.662;2022-10-16T04:03:01;115475.81;;;-139.81
8533;BMP280;4304;53.876;10.662;2022-10-16T04:05:26;115475.81;;;-139.81
8533;BMP280;4304;53.876;10.662;2022-10-16T04:07:51;115735.44;;;-139.81
8533;BMP280;4304;53.876;10.662;2022-10-16T04:10:17;115475.81;;;-139.81
8533;BMP280;4304;53.876;10.662;2022-10-16T04:12:42;115475.81;;;-139.81
8533;BMP280;4304;53.876;10.662;2022-10-16T04:15:07;115475.81;;;-139.81
8533;BMP280;4304;53.876;10.662;2022-10-16T04:17:33;115735.44;;;-139.81
8533;BMP280;4304;53.876;10.662;2022-10-16T04:19:58;115475.81;;;-139.81
8533;BMP280;4304;53.876;10.662;2022-10-16T04:22:25;115735.44;;;-139.81
8533;BMP280;4304;53.876;10.662;2022-10-16T04:24:50;115475.81;;;-139.81
8533;BMP280;4304;53.876;10.662;2022-10-16T04:27:16;115475.81;;;-139.81
8533;BMP280;4304;53.876;10.662;2022-10-16T04:29:41;115475.81;;;-139.81
8533;BMP280;4304;53.876;10.662;2022-10-16T04:32:08;115475.81;;;-139.81
8533;BMP280;4304;53.876;10.662;2022-10-16T04:34:33;115475.81;;;-139.81
8533;BMP280;4304;53.876;10.662;2022-10-16T04:36:59;115475.81;;;-139.81
8533;BMP280;4304;53.876;10.662;2022-10-16T04:39:24;115475.81;;;-139.81
8533;BMP280;4304;53.876;10.662;2022-10-16T04:41:49;115475.81;;;-139.81
8533;BMP280;4304;53.876;10.662;2022-10-16T04:44:14;115475.81;;;-139.81
8533;BMP280;4304;53.876;10.662;2022-10-16T04:46:39;115475.81;;;-139.81
8533;BMP280;4304;53.876;10.662;2022-10-16T04:49:05;115475.81;;;-139.81
8533;BMP280;4304;53.876;10.662;2022-10-16T04:51:30;115475.81;;;-139.81
8533;BMP280;4304;53.876;10.662;2022-10-16T04:53:56;115475.81;;;-139.81
8533;BMP280;4304;53.876;10.662;2022-10-16T04:56:21;115475.81;;;-139.81
8533;BMP280;4304;53.876;10.662;2022-10-16T04:58:46;115475.81;;;-139.81
8533;BMP280;4304;53.876;10.662;2022-10-16T05:01:12;115735.44;;;-139.81
8533;BMP280;4304;53.876;10.662;2022-10-16T05:03:37;115475.81;;;-139.81
8533;BMP280;4304;53.876;10.662;2022-10-16T05:06:05;115475.81;;;-139.81
8533;BMP280;4304;53.876;10.662;2022-10-16T05:08:33;115475.81;;;-139.81
8533;BMP280;4304;53.876;10.662;2022-10-16T05:10:58;115475.81;;;-139.81
8533;BMP280;4304;53.876;10.662;2022-10-16T05:13:23;115475.81;;;-139.81
8533;BMP280;4304;53.876;10.662;2022-10-16T05:15:49;115475.81;;;-139.81
8533;BMP280;4304;53.876;10.662;2022-10-16T05:18:15;115475.81;;;-139.81
8533;BMP280;4304;53.876;10.662;2022-10-16T05:20:41;115475.81;;;-139.81
8533;BMP280;4304;53.876;10.662;2022-10-16T05:23:06;115475.81;;;-139.81
8533;BMP280;4304;53.876;10.662;2022-10-16T05:25:32;115475.81;;;-139.81
8533;BMP280;4304;53.876;10.662;2022-10-16T05:27:57;115475.81;;;-139.81
8533;BMP280;4304;53.876;10.662;2022-10-16T05:30:22;115475.81;;;-139.81
8533;BMP280;4304;53.876;10.662;2022-10-16T05:32:49;115475.81;;;-139.81
8533;BMP280;4304;53.876;10.662;2022-10-16T05:35:15;115475.81;;;-139.81
8533;BMP280;4304;53.876;10.662;2022-10-16T05:37:41;115475.81;;;-139.81
8533;BMP280;4304;53.876;10.662;2022-10-16T05:40:07;115475.81;;;-139.81
8533;BMP280;4304;53.876;10.662;2022-10-16T05:42:33;115475.81;;;-139.81
8533;BMP280;4304;53.876;10.662;2022-10-16T05:44:58;115475.81;;;-139.81
8533;BMP280;4304;53.876;10.662;2022-10-16T05:47:23;115475.81;;;-139.81
8533;BMP280;4304;53.876;10.662;2022-10-16T05:49:48;115475.81;;;-139.81
8533;BMP280;4304;53.876;10.662;2022-10-16T05:52:13;115475.81;;;-139.81
8533;BMP280;4304;53.876;10.662;2022-10-16T05:54:39;115475.81;;;-139.81
8533;BMP280;4304;53.876;10.662;2022-10-16T05:57:04;115475.81;;;-139.81
8533;BMP280;4304;53.876;10.662;2022-10-16T05:59:29;115475.81;;;-139.81
8533;BMP280;4304;53.876;10.662;2022-10-16T06:01:54;115475.81;;;-139.81
8533;BMP280;4304;53.876;10.662;2022-10-16T06:04:19;115216.22;;;-139.81
8533;BMP280;4304;53.876;10.662;2022-10-16T06:06:45;115475.81;;;-139.81
8533;BMP280;4304;53.876;10.662;2022-10-16T06:09:10;115475.81;;;-139.81
8533;BMP280;4304;53.876;10.662;2022-10-16T06:11:36;115475.81;;;-139.81
8533;BMP280;4304;53.876;10.662;2022-10-16T06:14:01;115475.81;;;-139.81
8533;BMP280;4304;53.876;10.662;2022-10-16T06:16:27;115475.81;;;-139.81
8533;BMP280;4304;53.876;10.662;2022-10-16T06:18:53;115475.81;;;-139.81
8533;BMP280;4304;53.876;10.662;2022-10-16T06:21:21;115475.81;;;-139.81
8533;BMP280;4304;53.876;10.662;2022-10-16T06:23:47;115475.81;;;-139.81
8533;BMP280;4304;53.876;10.662;2022-10-16T06:26:15;115475.81;;;-139.81
8533;BMP280;4304;53.876;10.662;2022-10-16T06:28:41;115475.81;;;-139.81
8533;BMP280;4304;53.876;10.662;2022-10-16T06:31:09;115475.81;;;-139.81
8533;BMP280;4304;53.876;10.662;2022-10-16T06:33:35;115475.81;;;-139.81
8533;BMP280;4304;53.876;10.662;2022-10-16T06:36:03;115735.44;;;-139.81
8533;BMP280;4304;53.876;10.662;2022-10-16T06:38:29;115735.44;;;-139.81
8533;BMP280;4304;53.876;10.662;2022-10-16T06:40:54;115735.44;;;-139.81
8533;BMP280;4304;53.876;10.662;2022-10-16T06:43:19;115735.44;;;-139.81
8533;BMP280;4304;53.876;10.662;2022-10-16T06:45:51;115735.44;;;-139.81
8533;BMP280;4304;53.876;10.662;2022-10-16T06:48:16;115735.44;;;-139.81
8533;BMP280;4304;53.876;10.662;2022-10-16T06:50:41;115735.44;;;-139.81
8533;BMP280;4304;53.876;10.662;2022-10-16T06:53:07;115735.44;;;-139.81
8533;BMP280;4304;53.876;10.662;2022-10-16T06:55:32;115735.44;;;-139.81
8533;BMP280;4304;53.876;10.662;2022-10-16T06:57:57;115735.44;;;-139.81
8533;BMP280;4304;53.876;10.662;2022-10-16T07:00:22;115735.44;;;-139.81
8533;BMP280;4304;53.876;10.662;2022-10-16T07:02:47;115735.44;;;-139.81
8533;BMP280;4304;53.876;10.662;2022-10-16T07:05:14;115735.44;;;-139.81
8533;BMP280;4304;53.876;10.662;2022-10-16T07:07:39;115735.44;;;-139.81
8533;BMP280;4304;53.876;10.662;2022-10-16T07:10:04;115995.09;;;-139.81
8533;BMP280;4304;53.876;10.662;2022-10-16T07:12:30;116254.75;;;-139.81
8533;BMP280;4304;53.876;10.662;2022-10-16T07:14:55;116254.75;;;-139.81
8533;BMP280;4304;53.876;10.662;2022-10-16T07:17:20;116254.75;;;-139.81
8533;BMP280;4304;53.876;10.662;2022-10-16T07:19:46;116254.75;;;-139.81
8533;BMP280;4304;53.876;10.662;2022-10-16T07:22:11;116254.75;;;-139.81
8533;BMP280;4304;53.876;10.662;2022-10-16T07:24:38;116254.75;;;-139.81
8533;BMP280;4304;53.876;10.662;2022-10-16T07:27:06;116254.75;;;-139.81
8533;BMP280;4304;53.876;10.662;2022-10-16T07:29:32;116254.75;;;-139.81
8533;BMP280;4304;53.876;10.662;2022-10-16T07:31:57;116254.75;;;-139.81
8533;BMP280;4304;53.876;10.662;2022-10-16T07:34:22;116514.44;;;-139.81
8533;BMP280;4304;53.876;10.662;2022-10-16T07:36:49;116514.44;;;-139.81
8533;BMP280;4304;53.876;10.662;2022-10-16T07:39:14;116514.44;;;-139.81
8533;BMP280;4304;53.876;10.662;2022-10-16T07:41:39;116774.16;;;-139.81
8533;BMP280;4304;53.876;10.662;2022-10-16T07:44:05;116774.16;;;-139.81
8533;BMP280;4304;53.876;10.662;2022-10-16T07:46:30;116774.16;;;-139.81
8533;BMP280;4304;53.876;10.662;2022-10-16T07:48:55;116774.16;;;-139.81
8533;BMP280;4304;53.876;10.662;2022-10-16T07:51:22;116774.16;;;-139.81
8533;BMP280;4304;53.876;10.662;2022-10-16T07:53:48;116774.16;;;-139.81
8533;BMP280;4304;53.876;10.662;2022-10-16T07:56:14;116774.16;;;-139.81
8533;BMP280;4304;53.876;10.662;2022-10-16T07:58:40;116774.16;;;-139.81
8533;BMP280;4304;53.876;10.662;2022-10-16T08:01:07;116774.16;;;-139.81
8533;BMP280;4304;53.876;10.662;2022-10-16T08:03:34;116774.16;;;-139.81
8533;BMP280;4304;53.876;10.662;2022-10-16T08:06:00;116774.16;;;-139.81
8533;BMP280;4304;53.876;10.662;2022-10-16T08:08:26;116774.16;;;-139.81
8533;BMP280;4304;53.876;10.662;2022-10-16T08:10:51;116774.16;;;-139.81
8533;BMP280;4304;53.876;10.662;2022-10-16T08:13:16;116774.16;;;-139.81
8533;BMP280;4304;53.876;10.662;2022-10-16T08:15:43;116774.16;;;-139.81
8533;BMP280;4304;53.876;10.662;2022-10-16T08:18:09;116774.16;;;-139.81
8533;BMP280;4304;53.876;10.662;2022-10-16T08:20:35;116774.16;;;-139.81
8533;BMP280;4304;53.876;10.662;2022-10-16T08:23:00;116774.16;;;-139.81
8533;BMP280;4304;53.876;10.662;2022-10-16T08:25:26;116774.16;;;-139.81
8533;BMP280;4304;53.876;10.662;2022-10-16T08:27:52;116774.16;;;-139.81
8533;BMP280;4304;53.876;10.662;2022-10-16T08:30:18;116774.16;;;-139.81
8533;BMP280;4304;53.876;10.662;2022-10-16T08:32:47;116774.16;;;-139.81
8533;BMP280;4304;53.876;10.662;2022-10-16T08:35:13;117033.91;;;-139.81
8533;BMP280;4304;53.876;10.662;2022-10-16T08:37:39;116774.16;;;-139.81
8533;BMP280;4304;53.876;10.662;2022-10-16T08:40:06;116774.16;;;-139.81
8533;BMP280;4304;53.876;10.662;2022-10-16T08:42:57;116774.16;;;-139.81
8533;BMP280;4304;53.876;10.662;2022-10-16T08:45:35;117033.91;;;-139.81
8533;BMP280;4304;53.876;10.662;2022-10-16T08:48:27;117033.91;;;-139.81
8533;BMP280;4304;53.876;10.662;2022-10-16T08:50:54;117033.91;;;-139.81
8533;BMP280;4304;53.876;10.662;2022-10-16T08:53:30;117033.91;;;-139.81
8533;BMP280;4304;53.876;10.662;2022-10-16T08:55:56;117033.91;;;-139.81
8533;BMP280;4304;53.876;10.662;2022-10-16T08:58:25;117033.91;;;-139.81
8533;BMP280;4304;53.876;10.662;2022-10-16T09:00:57;117033.91;;;-139.81
8533;BMP280;4304;53.876;10.662;2022-10-16T09:09:08;117033.91;;;-139.81
8533;BMP280;4304;53.876;10.662;2022-10-16T09:11:47;117033.91;;;-139.81
8533;BMP280;4304;53.876;10.662;2022-10-16T09:17:35;117033.91;;;-139.81
8533;BMP280;4304;53.876;10.662;2022-10-16T09:20:19;117033.91;;;-139.81
8533;BMP280;4304;53.876;10.662;2022-10-16T09:22:48;117033.91;;;-139.81
8533;BMP280;4304;53.876;10.662;2022-10-16T09:25:19;117033.91;;;-139.81
8533;BMP280;4304;53.876;10.662;2022-10-16T09:27:47;117033.91;;;-139.81
8533;BMP280;4304;53.876;10.662;2022-10-16T09:30:15;117033.91;;;-139.81
8533;BMP280;4304;53.876;10.662;2022-10-16T09:32:43;117033.91;;;-139.81
8533;BMP280;4304;53.876;10.662;2022-10-16T09:35:14;117033.91;;;-139.81
8533;BMP280;4304;53.876;10.662;2022-10-16T09:37:41;117033.91;;;-139.81
8533;BMP280;4304;53.876;10.662;2022-10-16T09:40:28;117033.91;;;-139.81
8533;BMP280;4304;53.876;10.662;2022-10-16T09:46:03;117033.91;;;-139.81
8533;BMP280;4304;53.876;10.662;2022-10-16T09:48:39;117293.66;;;-139.81
8533;BMP280;4304;53.876;10.662;2022-10-16T09:53:59;117293.66;;;-139.81
8533;BMP280;4304;53.876;10.662;2022-10-16T09:56:28;117293.66;;;-139.81
8533;BMP280;4304;53.876;10.662;2022-10-16T09:58:56;117293.66;;;-139.81
8533;BMP280;4304;53.876;10.662;2022-10-16T10:01:28;117293.66;;;-139.81
8533;BMP280;4304;53.876;10.662;2022-10-16T10:03:56;117293.66;;;-139.81
8533;BMP280;4304;53.876;10.662;2022-10-16T10:06:25;117293.66;;;-139.81
8533;BMP280;4304;53.876;10.662;2022-10-16T10:08:58;117293.66;;;-139.81
8533;BMP280;4304;53.876;10.662;2022-10-16T10:16:48;117293.66;;;-139.81
8533;BMP280;4304;53.876;10.662;2022-10-16T10:19:16;117293.66;;;-139.81
8533;BMP280;4304;53.876;10.662;2022-10-16T10:21:41;117293.66;;;-139.81
8533;BMP280;4304;53.876;10.662;2022-10-16T10:24:10;117293.66;;;-139.81
8533;BMP280;4304;53.876;10.662;2022-10-16T10:26:36;117293.66;;;-139.81
8533;BMP280;4304;53.876;10.662;2022-10-16T10:29:12;117293.66;;;-139.81
8533;BMP280;4304;53.876;10.662;2022-10-16T10:32:34;117293.66;;;-139.81
8533;BMP280;4304;53.876;10.662;2022-10-16T10:35:13;117293.66;;;-139.81
8533;BMP280;4304;53.876;10.662;2022-10-16T10:45:47;117293.66;;;-139.81
8533;BMP280;4304;53.876;10.662;2022-10-16T10:48:20;117293.66;;;-139.81
8533;BMP280;4304;53.876;10.662;2022-10-16T10:53:24;117293.66;;;-139.81
8533;BMP280;4304;53.876;10.662;2022-10-16T10:56:21;117293.66;;;-139.81
8533;BMP280;4304;53.876;10.662;2022-10-16T11:02:00;117293.66;;;-139.81
8533;BMP280;4304;53.876;10.662;2022-10-16T11:04:50;117293.66;;;-139.81
8533;BMP280;4304;53.876;10.662;2022-10-16T11:07:27;117293.66;;;-139.81
8533;BMP280;4304;53.876;10.662;2022-10-16T11:09:56;117293.66;;;-139.81
8533;BMP280;4304;53.876;10.662;2022-10-16T11:15:21;117293.66;;;-139.81
8533;BMP280;4304;53.876;10.662;2022-10-16T11:17:53;117293.66;;;-139.81
8533;BMP280;4304;53.876;10.662;2022-10-16T11:20:30;117293.66;;;-139.81
8533;BMP280;4304;53.876;10.662;2022-10-16T11:23:00;117293.66;;;-139.81
8533;BMP280;4304;53.876;10.662;2022-10-16T11:25:29;117293.66;;;-139.81
8533;BMP280;4304;53.876;10.662;2022-10-16T11:30:55;117293.66;;;-139.81
8533;BMP280;4304;53.876;10.662;2022-10-16T11:33:30;117293.66;;;-139.81
8533;BMP280;4304;53.876;10.662;2022-10-16T11:38:44;117293.66;;;-139.81
8533;BMP280;4304;53.876;10.662;2022-10-16T11:41:32;117293.66;;;-139.81
8533;BMP280;4304;53.876;10.662;2022-10-16T11:47:01;117293.66;;;-139.81
8533;BMP280;4304;53.876;10.662;2022-10-16T11:49:28;117033.91;;;-139.81
8533;BMP280;4304;53.876;10.662;2022-10-16T11:54:47;117293.66;;;-139.81
8533;BMP280;4304;53.876;10.662;2022-10-16T11:57:27;117293.66;;;-139.81
8533;BMP280;4304;53.876;10.662;2022-10-16T11:59:58;117293.66;;;-139.81
8533;BMP280;4304;53.876;10.662;2022-10-16T12:06:04;117293.66;;;-139.81
8533;BMP280;4304;53.876;10.662;2022-10-16T12:08:33;117293.66;;;-139.81
8533;BMP280;4304;53.876;10.662;2022-10-16T12:13:51;117033.91;;;-139.81
8533;BMP280;4304;53.876;10.662;2022-10-16T12:18:43;117033.91;;;-139.81
8533;BMP280;4304;53.876;10.662;2022-10-16T12:21:10;117033.91;;;-139.81
8533;BMP280;4304;53.876;10.662;2022-10-16T12:23:50;117033.91;;;-139.81
8533;BMP280;4304;53.876;10.662;2022-10-16T12:26:26;117033.91;;;-139.81
8533;BMP280;4304;53.876;10.662;2022-10-16T12:28:53;117033.91;;;-139.81
8533;BMP280;4304;53.876;10.662;2022-10-16T12:31:18;117033.91;;;-139.81
8533;BMP280;4304;53.876;10.662;2022-10-16T12:34:02;117033.91;;;-139.81
8533;BMP280;4304;53.876;10.662;2022-10-16T12:36:34;117033.91;;;-139.81
8533;BMP280;4304;53.876;10.662;2022-10-16T12:39:00;117033.91;;;-139.81
8533;BMP280;4304;53.876;10.662;2022-10-16T12:41:31;117033.91;;;-139.81
8533;BMP280;4304;53.876;10.662;2022-10-16T12:43:58;117033.91;;;-139.81
8533;BMP280;4304;53.876;10.662;2022-10-16T12:46:35;117033.91;;;-139.81
8533;BMP280;4304;53.876;10.662;2022-10-16T12:51:40;117033.91;;;-139.81
8533;BMP280;4304;53.876;10.662;2022-10-16T12:56:42;117033.91;;;-139.81
8533;BMP280;4304;53.876;10.662;2022-10-16T12:59:21;117033.91;;;-139.81
8533;BMP280;4304;53.876;10.662;2022-10-16T13:10:42;117033.91;;;-139.81
8533;BMP280;4304;53.876;10.662;2022-10-16T13:22:01;117033.91;;;-139.81
8533;BMP280;4304;53.876;10.662;2022-10-16T13:27:22;116774.16;;;-139.81
8533;BMP280;4304;53.876;10.662;2022-10-16T13:30:02;116774.16;;;-139.81
8533;BMP280;4304;53.876;10.662;2022-10-16T13:32:33;116774.16;;;-139.81
8533;BMP280;4304;53.876;10.662;2022-10-16T13:34:58;116774.16;;;-139.81
8533;BMP280;4304;53.876;10.662;2022-10-16T13:37:24;116774.16;;;-139.81
8533;BMP280;4304;53.876;10.662;2022-10-16T13:39:49;116774.16;;;-139.81
8533;BMP280;4304;53.876;10.662;2022-10-16T13:42:21;116774.16;;;-139.81
8533;BMP280;4304;53.876;10.662;2022-10-16T13:44:50;116774.16;;;-139.81
8533;BMP280;4304;53.876;10.662;2022-10-16T13:47:20;116774.16;;;-139.81
8533;BMP280;4304;53.876;10.662;2022-10-16T13:49:47;116774.16;;;-139.81
8533;BMP280;4304;53.876;10.662;2022-10-16T13:52:23;116774.16;;;-139.81
8533;BMP280;4304;53.876;10.662;2022-10-16T13:54:48;116774.16;;;-139.81
8533;BMP280;4304;53.876;10.662;2022-10-16T13:57:17;116774.16;;;-139.81
8533;BMP280;4304;53.876;10.662;2022-10-16T13:59:43;117033.91;;;-139.81
8533;BMP280;4304;53.876;10.662;2022-10-16T14:02:30;117033.91;;;-139.81
8533;BMP280;4304;53.876;10.662;2022-10-16T14:04:57;117033.91;;;-139.81
8533;BMP280;4304;53.876;10.662;2022-10-16T14:07:28;117033.91;;;-139.81
8533;BMP280;4304;53.876;10.662;2022-10-16T14:09:54;117033.91;;;-139.81
8533;BMP280;4304;53.876;10.662;2022-10-16T14:12:21;117033.91;;;-139.81
8533;BMP280;4304;53.876;10.662;2022-10-16T14:14:49;117033.91;;;-139.81
8533;BMP280;4304;53.876;10.662;2022-10-16T14:17:22;117033.91;;;-139.81
8533;BMP280;4304;53.876;10.662;2022-10-16T14:19:50;116774.16;;;-139.81
8533;BMP280;4304;53.876;10.662;2022-10-16T14:22:30;116774.16;;;-139.81
8533;BMP280;4304;53.876;10.662;2022-10-16T14:24:56;116774.16;;;-139.81
8533;BMP280;4304;53.876;10.662;2022-10-16T14:27:32;116774.16;;;-139.81
8533;BMP280;4304;53.876;10.662;2022-10-16T14:30:19;116774.16;;;-139.81
8533;BMP280;4304;53.876;10.662;2022-10-16T14:33:02;116774.16;;;-139.81
8533;BMP280;4304;53.876;10.662;2022-10-16T14:35:36;116774.16;;;-139.81
8533;BMP280;4304;53.876;10.662;2022-10-16T14:38:03;116774.16;;;-139.81
8533;BMP280;4304;53.876;10.662;2022-10-16T14:40:31;116774.16;;;-139.81
8533;BMP280;4304;53.876;10.662;2022-10-16T14:42:57;116774.16;;;-139.81
8533;BMP280;4304;53.876;10.662;2022-10-16T14:45:27;116774.16;;;-139.81
8533;BMP280;4304;53.876;10.662;2022-10-16T14:47:57;116774.16;;;-139.81
8533;BMP280;4304;53.876;10.662;2022-10-16T14:50:22;116774.16;;;-139.81
8533;BMP280;4304;53.876;10.662;2022-10-16T14:52:48;116774.16;;;-139.81
8533;BMP280;4304;53.876;10.662;2022-10-16T14:55:13;116774.16;;;-139.81
8533;BMP280;4304;53.876;10.662;2022-10-16T14:57:39;116774.16;;;-139.81
8533;BMP280;4304;53.876;10.662;2022-10-16T15:00:19;116774.16;;;-139.81
8533;BMP280;4304;53.876;10.662;2022-10-16T15:02:46;116774.16;;;-139.81
8533;BMP280;4304;53.876;10.662;2022-10-16T15:05:22;116774.16;;;-139.81
8533;BMP280;4304;53.876;10.662;2022-10-16T15:07:48;116774.16;;;-139.81
8533;BMP280;4304;53.876;10.662;2022-10-16T15:10:13;116774.16;;;-139.81
8533;BMP280;4304;53.876;10.662;2022-10-16T15:12:39;116774.16;;;-139.81
8533;BMP280;4304;53.876;10.662;2022-10-16T15:15:33;116774.16;;;-139.81
8533;BMP280;4304;53.876;10.662;2022-10-16T15:17:59;116774.16;;;-139.81
8533;BMP280;4304;53.876;10.662;2022-10-16T15:20:25;116774.16;;;-139.81
8533;BMP280;4304;53.876;10.662;2022-10-16T15:22:53;116774.16;;;-139.81
8533;BMP280;4304;53.876;10.662;2022-10-16T15:25:48;116774.16;;;-139.81
8533;BMP280;4304;53.876;10.662;2022-10-16T15:28:15;116774.16;;;-139.81